Time;durP1;ratioP1;P1;durP2;ratioP2;P2;SDS_P1;SDS_P2;PMS_P1;PMS_P2;Temp;Humidity;BMP_temperature;BMP_pressure;BME280_temperature;BME280_humidity;BME280_pressure;Samples;Min_cycle;Max_cycle;Signal;HPM_P1;HPM_P2
2023/06/09 00:00:18;;;;;;;9.30;7.20;;;;;;;19.54;70.87;98803.89;223711;183;137596;-64
2023/06/09 00:05:42;;;;;;;10.20;7.40;;;;;;;19.52;71.12;98798.94;223774;183;144952;-65
2023/06/09 00:10:46;;;;;;;9.70;7.90;;;;;;;19.53;71.18;98798.22;223854;182;138475;-65
2023/06/09 00:15:49;;;;;;;10.60;7.90;;;;;;;19.55;71.08;98797.11;223798;183;136663;-65
2023/06/09 00:20:52;;;;;;;11.90;8.10;;;;;;;19.57;71.49;98794.24;223780;182;145305;-66
2023/06/09 00:25:56;;;;;;;10.60;7.90;;;;;;;19.58;71.39;98784.08;223821;183;138457;-66
2023/06/09 00:30:59;;;;;;;9.00;7.20;;;;;;;19.55;71.47;98783.61;223948;183;137272;-65
2023/06/09 00:36:02;;;;;;;9.30;6.90;;;;;;;19.55;71.43;98773.75;223687;182;281163;-66
2023/06/09 00:41:06;;;;;;;9.40;7.70;;;;;;;19.56;71.55;98769.27;223790;183;138381;-67
2023/06/09 00:46:09;;;;;;;9.50;7.90;;;;;;;19.60;71.37;98768.90;223787;182;139385;-67
2023/06/09 00:51:12;;;;;;;8.90;7.70;;;;;;;19.59;71.34;98767.77;223847;183;145889;-65
2023/06/09 00:56:18;;;;;;;8.80;7.90;;;;;;;19.54;71.53;98765.21;223773;182;138713;-66
2023/06/09 01:01:21;;;;;;;10.30;8.50;;;;;;;19.48;71.67;98769.31;223874;182;137201;-64
2023/06/09 01:06:38;;;;;;;10.10;7.90;;;;;;;19.40;71.94;98765.96;223823;183;145278;-65
2023/06/09 01:12:05;;;;;;;11.00;8.00;;;;;;;19.36;72.19;98759.46;223788;182;138180;-64
2023/06/09 01:17:18;;;;;;;9.20;7.90;;;;;;;19.42;72.50;98762.84;223718;183;137032;-65
2023/06/09 01:22:50;;;;;;;9.10;7.80;;;;;;;19.47;72.29;98760.58;223730;182;144938;-65
2023/06/09 01:27:57;;;;;;;9.50;7.90;;;;;;;19.46;72.26;98758.67;223726;182;138918;-65
2023/06/09 01:33:06;;;;;;;13.40;8.10;;;;;;;19.44;72.44;98751.89;223866;182;246783;-63
2023/06/09 01:38:10;;;;;;;8.30;7.40;;;;;;;19.38;72.70;98743.98;223752;183;145308;-66
2023/06/09 01:43:14;;;;;;;9.10;7.30;;;;;;;19.38;72.86;98738.59;223818;182;139016;-66
2023/06/09 01:48:31;;;;;;;10.40;8.20;;;;;;;19.45;72.95;98733.98;223796;182;139060;-64
2023/06/09 01:53:41;;;;;;;11.20;8.70;;;;;;;19.52;72.67;98727.84;223785;182;145885;-65
2023/06/09 01:58:47;;;;;;;9.90;8.70;;;;;;;19.51;72.69;98727.55;223657;182;138948;-64
2023/06/09 02:04:03;;;;;;;9.70;8.50;;;;;;;19.48;72.68;98721.27;223561;182;137408;-64
2023/06/09 02:09:11;;;;;;;11.40;7.90;;;;;;;19.45;72.72;98721.42;223689;182;145304;-65
2023/06/09 02:14:15;;;;;;;9.10;8.00;;;;;;;19.41;72.67;98728.63;223582;183;138385;-64
2023/06/09 02:19:18;;;;;;;10.30;8.70;;;;;;;19.40;72.72;98723.35;223766;183;138832;-65
2023/06/09 02:24:22;;;;;;;12.00;9.00;;;;;;;19.42;72.59;98725.48;223585;182;145759;-65
2023/06/09 02:29:27;;;;;;;10.90;8.90;;;;;;;19.40;72.67;98728.53;223762;183;138542;-65
2023/06/09 02:34:31;;;;;;;15.60;9.60;;;;;;;19.35;72.65;98724.31;223819;182;136379;-65
2023/06/09 02:39:35;;;;;;;12.70;7.90;;;;;;;19.32;72.62;98728.16;223674;182;145307;-65
2023/06/09 02:44:38;;;;;;;9.70;8.20;;;;;;;19.28;72.70;98729.08;223693;183;138450;-63
2023/06/09 02:49:42;;;;;;;9.80;8.60;;;;;;;19.29;72.81;98728.45;223761;182;136775;-65
2023/06/09 02:54:45;;;;;;;10.20;8.90;;;;;;;19.30;72.79;98733.31;223741;182;145549;-65
2023/06/09 02:59:49;;;;;;;12.80;9.90;;;;;;;19.30;72.84;98733.14;223715;183;138736;-66
2023/06/09 03:04:52;;;;;;;12.10;8.90;;;;;;;19.27;72.89;98734.88;223663;182;136943;-65
2023/06/09 03:09:56;;;;;;;10.30;8.70;;;;;;;19.22;73.13;98738.67;223734;182;144976;-63
2023/06/09 03:15:00;;;;;;;15.10;9.60;;;;;;;19.22;73.20;98734.77;223624;182;138428;-66
2023/06/09 03:20:06;;;;;;;13.80;9.80;;;;;;;19.25;73.36;98741.27;223818;183;138792;-65
2023/06/09 03:25:10;;;;;;;16.90;12.20;;;;;;;19.28;73.45;98743.05;223754;182;147016;-66
2023/06/09 03:30:13;;;;;;;15.30;11.80;;;;;;;19.34;73.44;98745.71;223730;182;138849;-66
2023/06/09 03:35:20;;;;;;;18.80;13.60;;;;;;;19.33;73.53;98748.85;223743;183;138019;-65
2023/06/09 03:40:23;;;;;;;18.60;13.10;;;;;;;19.28;73.63;98762.11;223674;183;147306;-65
2023/06/09 03:45:27;;;;;;;17.00;12.80;;;;;;;19.28;74.05;98770.30;223705;183;139062;-66
2023/06/09 03:50:31;;;;;;;20.00;13.50;;;;;;;19.34;74.02;98769.09;223630;183;137425;-63
2023/06/09 03:55:34;;;;;;;19.60;15.30;;;;;;;19.41;74.01;98769.27;223645;183;147210;-65
2023/06/09 04:00:38;;;;;;;19.80;15.50;;;;;;;19.37;73.90;98769.63;223667;183;138537;-64
2023/06/09 04:05:42;;;;;;;21.50;15.70;;;;;;;19.38;74.01;98767.73;223726;183;137179;-64
2023/06/09 04:10:46;;;;;;;17.80;14.20;;;;;;;19.36;74.16;98767.23;223624;182;148413;-66
2023/06/09 04:15:49;;;;;;;19.20;14.70;;;;;;;19.34;74.45;98761.71;223673;183;139631;-65
2023/06/09 04:20:53;;;;;;;18.90;15.40;;;;;;;19.41;74.57;98758.98;223665;183;137274;-65
2023/06/09 04:25:59;;;;;;;20.00;15.40;;;;;;;19.47;74.61;98762.54;223570;184;147322;-65
2023/06/09 04:31:06;;;;;;;20.40;14.80;;;;;;;19.50;74.41;98766.03;223628;183;143242;-65
2023/06/09 04:36:10;;;;;;;19.40;16.20;;;;;;;19.51;74.62;98765.17;223677;183;137099;-65
2023/06/09 04:41:17;;;;;;;22.30;14.70;;;;;;;19.55;74.63;98762.83;223541;183;147072;-66
2023/06/09 04:46:25;;;;;;;21.20;14.70;;;;;;;19.58;74.73;98761.36;223626;183;139175;-66
2023/06/09 04:51:41;;;;;;;20.10;15.60;;;;;;;19.68;74.60;98753.90;223693;183;137445;-67
2023/06/09 04:56:52;;;;;;;18.90;15.00;;;;;;;19.77;74.49;98754.55;223500;183;147182;-66
2023/06/09 05:01:58;;;;;;;18.80;14.90;;;;;;;19.84;74.19;98759.61;223604;183;138645;-66
2023/06/09 05:07:03;;;;;;;18.60;15.20;;;;;;;19.82;74.07;98762.48;223665;182;137726;-66
2023/06/09 05:12:08;;;;;;;17.90;14.70;;;;;;;19.81;74.13;98765.52;223651;182;146830;-66
2023/06/09 05:17:11;;;;;;;20.20;15.50;;;;;;;19.81;74.21;98768.71;223632;182;138513;-66
2023/06/09 05:22:16;;;;;;;22.00;15.60;;;;;;;19.87;74.31;98768.08;223550;183;138272;-67
2023/06/09 05:27:20;;;;;;;23.90;17.40;;;;;;;19.93;74.34;98770.63;223563;184;147892;-66
2023/06/09 05:32:23;;;;;;;20.50;16.10;;;;;;;19.97;74.24;98766.54;223587;183;138523;-66
2023/06/09 05:37:27;;;;;;;22.90;17.30;;;;;;;20.00;73.99;98767.63;223614;184;138448;-67
2023/06/09 05:42:30;;;;;;;21.60;15.70;;;;;;;20.00;74.14;98766.68;223493;183;147114;-68
2023/06/09 05:47:33;;;;;;;23.60;16.40;;;;;;;20.08;74.04;98764.29;223655;183;138944;-68
2023/06/09 05:52:37;;;;;;;21.20;16.10;;;;;;;20.17;73.93;98763.31;223618;183;138282;-66
2023/06/09 05:57:40;;;;;;;18.70;16.00;;;;;;;20.29;73.74;98759.73;223688;183;147280;-66
2023/06/09 06:02:44;;;;;;;21.80;15.50;;;;;;;20.39;73.38;98759.20;223582;182;138429;-66
2023/06/09 06:07:48;;;;;;;19.10;15.00;;;;;;;20.45;73.09;98760.86;223599;183;139865;-68
2023/06/09 06:12:51;;;;;;;19.30;15.00;;;;;;;20.54;73.26;98758.27;223682;183;146965;-68
2023/06/09 06:17:54;;;;;;;17.60;14.20;;;;;;;20.64;72.73;98768.38;223487;216;139057;-67
2023/06/09 06:22:58;;;;;;;17.30;14.20;;;;;;;20.69;72.41;98772.71;223467;183;139737;-65
2023/06/09 06:28:04;;;;;;;19.40;14.50;;;;;;;20.67;72.02;98774.54;223465;183;148655;-65
2023/06/09 06:33:09;;;;;;;18.10;15.10;;;;;;;20.68;72.06;98780.58;223414;183;138369;-66
2023/06/09 06:38:13;;;;;;;17.80;15.30;;;;;;;20.70;72.39;98781.61;223622;182;139191;-67
2023/06/09 06:43:16;;;;;;;19.30;14.50;;;;;;;20.79;72.35;98784.98;223586;183;147087;-66
2023/06/09 06:48:32;;;;;;;19.90;14.40;;;;;;;20.84;72.13;98791.98;223364;206;138286;-66
2023/06/09 06:53:37;;;;;;;20.20;16.10;;;;;;;20.90;72.07;98791.69;223579;183;138398;-66
2023/06/09 06:58:41;;;;;;;;;;;;;;;21.09;72.12;98793.33;223430;182;147118;-66
2023/06/09 07:03:45;;;;;;;21.50;17.20;;;;;;;21.20;71.75;98787.33;223566;182;138472;-65
2023/06/09 07:08:49;;;;;;;22.20;16.80;;;;;;;21.26;71.64;98779.13;223522;182;137656;-66
2023/06/09 07:13:53;;;;;;;17.90;15.60;;;;;;;21.41;71.52;98778.42;223505;182;147211;-66
2023/06/09 07:18:56;;;;;;;17.60;15.40;;;;;;;21.55;71.42;98780.65;223536;183;141450;-66
2023/06/09 07:24:06;;;;;;;18.20;15.60;;;;;;;21.74;71.05;98779.36;223476;183;137644;-67
2023/06/09 07:29:11;;;;;;;18.30;16.10;;;;;;;21.86;70.32;98776.20;223478;183;148470;-67
2023/06/09 07:34:14;;;;;;;18.50;16.40;;;;;;;21.91;69.84;98770.20;223561;182;138400;-66
2023/06/09 07:39:18;;;;;;;20.60;15.90;;;;;;;21.93;69.46;98773.71;223425;216;137749;-66
2023/06/09 07:44:23;;;;;;;18.50;16.10;;;;;;;21.94;69.41;98769.45;223475;184;148987;-66
2023/06/09 07:49:27;;;;;;;14.60;13.00;;;;;;;21.98;69.11;98766.73;223484;182;138360;-69
2023/06/09 07:54:30;;;;;;;19.50;14.40;;;;;;;22.05;68.91;98762.30;223464;183;138439;-66
2023/06/09 07:59:34;;;;;;;15.60;13.90;;;;;;;22.19;68.41;98765.59;223485;213;147786;-67
2023/06/09 08:04:39;;;;;;;15.60;14.00;;;;;;;22.34;67.97;98765.18;223414;216;139558;-66
2023/06/09 08:09:43;;;;;;;;;;;;;;;22.40;67.45;98763.86;223350;183;137293;-67
2023/06/09 08:14:47;;;;;;;14.40;12.60;;;;;;;22.44;66.63;98764.69;223472;211;147724;-69
2023/06/09 08:19:50;;;;;;;16.00;12.40;;;;;;;22.41;66.25;98764.13;223357;216;138340;-68
2023/06/09 08:24:54;;;;;;;14.20;11.20;;;;;;;22.45;66.40;98761.53;223390;206;137853;-68
2023/06/09 08:29:58;;;;;;;14.30;10.90;;;;;;;22.53;65.79;98748.67;223460;216;147060;-68
2023/06/09 08:35:06;;;;;;;13.60;12.20;;;;;;;22.64;65.14;98745.05;223509;183;138371;-67
2023/06/09 08:40:10;;;;;;;14.10;10.60;;;;;;;22.74;64.91;98743.16;223533;187;137594;-68
2023/06/09 08:45:18;;;;;;;16.00;10.90;;;;;;;22.98;64.41;98731.80;223493;184;147094;-67
2023/06/09 08:50:22;;;;;;;14.80;10.10;;;;;;;23.16;63.34;98729.31;223405;216;138264;-67
2023/06/09 08:55:26;;;;;;;12.30;10.10;;;;;;;23.20;62.90;98730.47;223549;183;137455;-67
2023/06/09 09:00:29;;;;;;;14.60;10.60;;;;;;;23.13;62.44;98728.42;223492;216;146163;-68
2023/06/09 09:05:33;;;;;;;12.70;10.90;;;;;;;23.10;62.32;98730.55;223532;217;138519;-67
2023/06/09 09:10:38;;;;;;;17.20;10.30;;;;;;;23.24;62.21;98722.92;223539;216;137520;-66
2023/06/09 09:15:48;;;;;;;;;;;;;;;23.35;61.63;98721.96;223466;209;148709;-66
2023/06/09 09:20:54;;;;;;;15.00;10.70;;;;;;;23.38;61.82;98723.27;223455;187;138213;-66
2023/06/09 09:26:00;;;;;;;11.10;9.80;;;;;;;23.55;61.71;98716.10;223390;183;137319;-66
2023/06/09 09:31:03;;;;;;;15.30;9.50;;;;;;;23.63;61.14;98707.70;223453;182;150145;-66
2023/06/09 09:36:10;;;;;;;10.80;8.60;;;;;;;23.64;60.84;98703.95;223464;193;150713;-66
2023/06/09 09:41:14;;;;;;;10.00;8.60;;;;;;;23.80;60.62;98701.11;223519;182;141245;-66
2023/06/09 09:46:19;;;;;;;10.60;9.40;;;;;;;23.95;60.25;98692.56;223550;182;146972;-69
2023/06/09 09:51:23;;;;;;;10.50;9.40;;;;;;;24.07;60.15;98690.02;223554;182;140728;-66
2023/06/09 09:56:28;;;;;;;12.50;8.30;;;;;;;24.26;59.74;98679.80;223549;182;138082;-66
2023/06/09 12:05:38;;;;;;;9.30;7.00;;;;;;;24.96;54.37;98615.64;222009;192;665514;-68
2023/06/09 12:10:42;;;;;;;9.60;8.00;;;;;;;24.92;54.50;98620.31;223146;187;136161;-67
2023/06/09 12:15:52;;;;;;;9.50;7.40;;;;;;;24.91;53.91;98607.04;223208;186;143156;-66
2023/06/09 12:20:56;;;;;;;11.20;8.10;;;;;;;24.89;53.81;98602.02;223495;184;138984;-66
2023/06/09 12:26:05;;;;;;;10.00;8.60;;;;;;;24.98;53.87;98600.67;223488;184;136576;-67
2023/06/09 12:31:10;;;;;;;12.30;9.40;;;;;;;25.03;54.14;98590.40;223556;182;143463;-70
2023/06/09 12:36:13;;;;;;;;;;;;;;;24.97;53.97;98594.27;223582;182;138446;-67
2023/06/09 12:41:18;;;;;;;10.90;9.30;;;;;;;24.89;54.35;98600.86;223676;182;128057;-69
2023/06/09 12:50:43;;;;;;;11.40;9.50;;;;;;;24.64;54.68;98599.10;221892;197;666593;-67
2023/06/09 12:55:46;;;;;;;10.60;9.40;;;;;;;24.50;55.86;98603.16;223233;185;136457;-68
2023/06/09 13:00:50;;;;;;;11.70;8.40;;;;;;;24.40;55.87;98595.42;223486;183;143409;-67
2023/06/09 13:05:53;;;;;;;11.80;9.10;;;;;;;24.35;56.17;98589.20;223429;183;138830;-67
2023/06/09 13:10:56;;;;;;;10.30;9.20;;;;;;;24.31;56.33;98579.06;223429;183;140506;-67
2023/06/09 13:16:00;;;;;;;11.30;10.10;;;;;;;24.27;56.40;98578.14;223517;183;144033;-67
2023/06/09 13:21:03;;;;;;;14.10;12.30;;;;;;;24.23;56.74;98568.77;223538;182;138311;-67
2023/06/09 13:26:07;;;;;;;14.90;11.50;;;;;;;24.23;56.65;98557.60;223554;183;138281;-66
2023/06/09 13:31:10;;;;;;;15.80;12.40;;;;;;;24.22;56.56;98552.54;223417;187;142981;-67
2023/06/09 13:36:14;;;;;;;14.70;12.10;;;;;;;24.25;56.17;98554.40;223406;183;139092;-68
2023/06/09 13:41:18;;;;;;;12.60;11.30;;;;;;;24.28;56.10;98544.14;223490;183;137588;-66
2023/06/09 13:46:22;;;;;;;12.30;11.10;;;;;;;24.27;55.57;98531.33;223466;184;146014;-67
2023/06/09 13:51:25;;;;;;;14.10;11.70;;;;;;;24.18;55.44;98531.48;223484;183;138110;-67
2023/06/09 13:56:29;;;;;;;15.30;12.60;;;;;;;24.15;55.74;98532.02;223558;183;136976;-67
2023/06/09 14:01:33;;;;;;;15.70;12.50;;;;;;;24.16;55.79;98545.48;223438;182;145318;-66
2023/06/09 14:06:38;;;;;;;15.20;11.70;;;;;;;24.16;55.92;98558.53;223416;183;138956;-69
2023/06/09 14:11:41;;;;;;;17.40;11.90;;;;;;;24.15;55.89;98559.53;223299;184;138300;-69
2023/06/09 14:16:45;;;;;;;17.10;11.70;;;;;;;24.14;55.84;98550.61;223369;188;145025;-67
2023/06/09 14:21:49;;;;;;;13.70;11.00;;;;;;;24.10;55.93;98557.73;223377;184;138680;-66
2023/06/09 14:26:52;;;;;;;14.00;11.20;;;;;;;24.09;56.03;98567.08;223452;183;137583;-67
2023/06/09 14:31:56;;;;;;;13.30;8.40;;;;;;;24.12;55.64;98578.86;223460;183;145352;-67
2023/06/09 14:36:59;;;;;;;10.20;8.70;;;;;;;24.08;55.32;98587.85;223354;183;138671;-69
2023/06/09 14:42:02;;;;;;;12.90;9.00;;;;;;;24.05;55.54;98596.73;223432;183;247079;-65
2023/06/09 14:47:06;;;;;;;10.00;7.80;;;;;;;24.05;55.49;98592.89;223400;183;145715;-65
2023/06/09 14:52:09;;;;;;;10.40;8.40;;;;;;;24.07;55.66;98593.02;223406;183;138289;-65
2023/06/09 14:57:13;;;;;;;9.10;8.20;;;;;;;24.09;55.39;98598.63;223400;184;137091;-64
2023/06/09 15:02:16;;;;;;;9.70;8.50;;;;;;;24.05;55.58;98608.44;223459;183;145439;-67
2023/06/09 15:07:19;;;;;;;9.00;6.40;;;;;;;23.88;56.79;98618.91;223409;183;138364;-69
2023/06/09 15:12:23;;;;;;;7.60;3.80;;;;;;;23.58;56.84;98615.29;223457;183;136873;-70
2023/06/09 15:17:26;;;;;;;6.40;3.50;;;;;;;23.35;56.81;98615.69;223499;183;145375;-69
2023/06/09 15:22:31;;;;;;;6.80;3.20;;;;;;;23.21;57.21;98630.23;223477;183;139458;-66
2023/06/09 15:27:36;;;;;;;7.00;3.30;;;;;;;23.09;57.66;98626.11;223502;183;136688;-65
2023/06/09 15:32:39;;;;;;;13.80;4.30;;;;;;;23.01;58.45;98623.62;223385;183;145110;-65
2023/06/09 15:37:43;;;;;;;15.20;4.50;;;;;;;22.95;59.11;98626.21;223400;180;140022;-65
2023/06/09 15:42:49;;;;;;;8.20;3.80;;;;;;;22.90;59.20;98627.38;223446;183;136506;-66
2023/06/09 15:47:52;;;;;;;10.80;3.40;;;;;;;22.86;59.42;98634.58;223507;181;147064;-64
2023/06/09 15:52:57;;;;;;;8.90;3.60;;;;;;;22.82;59.87;98641.27;223536;181;138267;-64
2023/06/09 15:58:03;;;;;;;5.70;3.30;;;;;;;22.74;59.91;98648.55;223523;182;137891;-63
2023/06/09 16:03:07;;;;;;;5.70;3.10;;;;;;;22.60;60.58;98652.77;223493;181;145339;-65
2023/06/09 16:08:12;;;;;;;6.90;3.60;;;;;;;22.50;61.09;98658.23;223509;182;138917;-65
2023/06/09 16:13:16;;;;;;;;;;;;;;;22.35;61.60;98661.17;223592;181;137489;-65
2023/06/09 16:18:21;;;;;;;6.20;3.30;;;;;;;22.28;61.94;98670.22;223727;181;145285;-65
2023/06/09 16:23:25;;;;;;;8.20;3.60;;;;;;;22.32;62.11;98674.77;223541;181;138526;-64
2023/06/09 16:28:28;;;;;;;4.90;3.10;;;;;;;22.30;61.85;98671.98;223582;182;137188;-66
2023/06/09 16:33:35;;;;;;;4.00;3.30;;;;;;;22.27;62.12;98669.15;223575;181;145819;-65
2023/06/09 16:38:38;;;;;;;4.30;3.50;;;;;;;22.20;62.08;98663.90;223498;183;138437;-65
2023/06/09 16:43:42;;;;;;;4.80;3.80;;;;;;;22.15;62.22;98663.21;223570;182;136926;-65
2023/06/09 16:48:45;;;;;;;7.10;4.10;;;;;;;22.11;62.25;98665.52;223551;182;145449;-66
2023/06/09 16:53:48;;;;;;;12.80;5.40;;;;;;;22.02;62.50;98663.49;223628;182;138270;-67
2023/06/09 16:58:52;;;;;;;25.90;7.50;;;;;;;21.96;62.72;98659.08;223607;181;137221;-66
2023/06/09 17:03:55;;;;;;;14.90;5.10;;;;;;;21.92;62.98;98647.92;223522;182;145672;-66
2023/06/09 17:08:58;;;;;;;4.30;3.90;;;;;;;21.88;63.06;98642.13;223590;182;138418;-66
2023/06/09 17:14:05;;;;;;;9.40;5.50;;;;;;;21.83;62.98;98636.77;223505;182;137013;-66
2023/06/09 17:19:09;;;;;;;9.70;5.40;;;;;;;21.81;63.20;98624.31;223508;183;145613;-67
2023/06/09 17:24:12;;;;;;;13.00;6.10;;;;;;;21.83;63.46;98614.71;223625;181;138666;-66
2023/06/09 17:29:16;;;;;;;11.20;5.80;;;;;;;21.87;63.05;98616.59;223507;182;137056;-67
2023/06/09 17:34:19;;;;;;;10.20;4.60;;;;;;;21.87;62.76;98613.71;223566;181;144984;-71
2023/06/09 17:39:22;;;;;;;7.00;4.60;;;;;;;21.83;62.66;98621.83;223568;182;138831;-71
2023/06/09 17:44:25;;;;;;;6.90;5.10;;;;;;;21.80;62.93;98625.37;223506;182;137100;-69
2023/06/09 17:49:28;;;;;;;7.50;4.30;;;;;;;21.84;63.05;98630.15;223505;182;145312;-69
2023/06/09 17:54:37;;;;;;;6.70;4.70;;;;;;;21.88;63.22;98637.41;223573;181;140902;-69
2023/06/09 17:59:40;;;;;;;4.70;4.00;;;;;;;21.87;63.24;98643.55;223563;182;136858;-70
2023/06/09 18:04:43;;;;;;;7.90;4.50;;;;;;;21.89;63.29;98651.81;223560;181;145516;-72
2023/06/09 18:09:47;;;;;;;8.80;4.10;;;;;;;21.84;63.28;98652.16;223567;182;138625;-70
2023/06/09 18:14:50;;;;;;;5.70;4.30;;;;;;;21.79;63.49;98652.96;223623;181;139407;-70
2023/06/09 18:19:54;;;;;;;4.30;3.70;;;;;;;21.75;63.62;98655.02;223558;182;145885;-67
2023/06/09 18:24:58;;;;;;;6.30;4.60;;;;;;;21.73;63.50;98659.23;223530;181;139554;-66
2023/06/09 18:30:02;;;;;;;8.80;4.80;;;;;;;21.51;63.68;98663.84;223460;181;137256;-65
2023/06/09 18:35:05;;;;;;;6.90;5.50;;;;;;;21.38;64.08;98669.16;223524;182;145384;-66
2023/06/09 18:40:09;;;;;;;6.60;5.00;;;;;;;21.26;64.67;98677.48;223581;181;139354;-66
2023/06/09 18:45:13;;;;;;;10.20;5.60;;;;;;;21.17;64.92;98686.62;223485;181;137380;-66
2023/06/09 18:50:16;;;;;;;7.30;5.40;;;;;;;21.07;65.32;98692.80;223530;182;145297;-66
2023/06/09 18:55:20;;;;;;;5.90;5.00;;;;;;;20.99;65.61;98699.46;223575;182;141201;-66
2023/06/09 19:00:23;;;;;;;5.90;4.80;;;;;;;20.97;65.84;98704.57;223510;182;138256;-64
2023/06/09 19:05:26;;;;;;;6.90;5.30;;;;;;;20.96;66.05;98703.89;223469;181;144990;-65
2023/06/09 19:53:07;;;;;;;7.30;5.50;;;;;;;20.81;66.79;98705.41;220241;190;679538;-66
2023/06/09 19:58:17;;;;;;;7.20;6.30;;;;;;;20.81;66.73;98701.83;222894;188;137350;-66
2023/06/09 20:03:21;;;;;;;8.90;6.30;;;;;;;20.74;66.66;98704.52;223127;185;143986;-65
2023/06/09 20:08:24;;;;;;;9.40;6.20;;;;;;;20.66;66.73;98697.58;223310;184;138362;-65
2023/06/09 20:13:27;;;;;;;9.90;5.80;;;;;;;20.59;67.09;98694.55;223306;184;136266;-65
2023/06/09 20:18:30;;;;;;;10.30;6.00;;;;;;;20.55;67.08;98694.21;223503;184;143477;-66
2023/06/09 20:23:40;;;;;;;7.40;6.30;;;;;;;20.56;67.09;98698.58;223378;183;139027;-65
2023/06/09 20:28:44;;;;;;;7.10;6.40;;;;;;;20.57;66.89;98704.11;223536;184;139449;-66
2023/06/09 20:33:50;;;;;;;9.50;6.30;;;;;;;20.51;67.03;98702.78;223425;184;144009;-66
2023/06/09 20:38:54;;;;;;;8.60;6.10;;;;;;;20.43;67.22;98698.75;223390;184;138405;-66
2023/06/09 20:43:57;;;;;;;7.80;6.40;;;;;;;20.37;67.39;98699.98;223515;184;136931;-66
2023/06/09 20:49:01;;;;;;;7.80;6.10;;;;;;;20.30;67.57;98705.01;223463;184;145278;-64
2023/06/09 20:54:05;;;;;;;7.90;6.30;;;;;;;20.25;67.93;98703.34;223423;184;138310;-65
2023/06/09 20:59:08;;;;;;;10.10;6.20;;;;;;;20.26;68.07;98706.66;223326;184;138071;-65
2023/06/09 21:04:13;;;;;;;9.80;6.60;;;;;;;20.30;67.93;98711.52;223386;185;145452;-66
2023/06/09 21:09:17;;;;;;;8.00;7.20;;;;;;;20.32;67.85;98713.09;223382;184;140007;-66
2023/06/09 21:14:20;;;;;;;9.40;7.40;;;;;;;20.32;68.07;98717.19;223447;184;136988;-66
2023/06/09 21:19:26;;;;;;;8.90;7.00;;;;;;;20.31;68.20;98721.09;223357;185;145232;-66
2023/06/09 21:24:31;;;;;;;10.50;7.10;;;;;;;20.29;68.22;98718.25;223359;184;138519;-66
2023/06/09 21:29:34;;;;;;;9.00;7.30;;;;;;;20.25;68.41;98731.81;223584;183;136407;-65
2023/06/09 21:34:38;;;;;;;7.50;6.00;;;;;;;20.21;68.48;98734.45;223608;183;145438;-66
2023/06/09 21:39:41;;;;;;;7.40;6.00;;;;;;;20.21;68.81;98732.25;223617;183;140550;-66
2023/06/09 21:44:44;;;;;;;11.80;8.00;;;;;;;20.24;68.63;98727.26;223565;183;137179;-66
2023/06/09 21:49:47;;;;;;;11.70;9.00;;;;;;;20.29;68.41;98723.30;223579;183;145916;-66
2023/06/09 21:54:51;;;;;;;15.60;8.20;;;;;;;20.30;68.27;98720.14;223554;182;137886;-66
2023/06/09 21:59:54;;;;;;;10.30;7.90;;;;;;;20.26;68.39;98715.48;223582;183;137445;-64
2023/06/09 22:04:58;;;;;;;9.80;7.90;;;;;;;20.23;68.52;98711.14;223708;182;145462;-65
2023/06/09 22:10:02;;;;;;;9.90;7.30;;;;;;;20.19;68.49;98701.47;223811;182;139879;-65
2023/06/09 22:15:07;;;;;;;7.20;6.20;;;;;;;20.15;68.60;98697.95;223782;182;136662;-66
2023/06/09 22:20:12;;;;;;;;;;;;;;;20.14;68.64;98700.91;223771;182;145320;-65
2023/06/09 22:25:15;;;;;;;10.20;6.80;;;;;;;20.16;68.67;98700.02;223835;182;138073;-66
2023/06/09 22:30:18;;;;;;;9.40;7.30;;;;;;;20.19;68.61;98699.69;223781;182;137287;-66
2023/06/09 22:35:22;;;;;;;8.10;7.30;;;;;;;20.18;68.51;98703.73;223793;182;145641;-65
2023/06/09 22:40:25;;;;;;;12.40;8.30;;;;;;;20.12;68.54;98703.85;223756;183;138432;-65
